Time;durP1;ratioP1;P1;durP2;ratioP2;P2;SDS_P1;SDS_P2;PMS_P1;PMS_P2;Temp;Humidity;BMP_temperature;BMP_pressure;BME280_temperature;BME280_humidity;BME280_pressure;Samples;Min_cycle;Max_cycle;Signal;HPM_P1;HPM_P2
2021/05/03 00:00:12;;;;;;;2.35;1.15;;;8.70;69.30;;;;;;4954467;28;20392;-74
2021/05/03 00:02:38;;;;;;;3.25;1.00;;;8.70;69.50;;;;;;4955067;28;20030;-73
2021/05/03 00:05:06;;;;;;;2.08;1.10;;;8.70;69.70;;;;;;4954601;28;20027;-73
2021/05/03 00:07:32;;;;;;;4.47;1.00;;;8.70;69.80;;;;;;4954419;28;20543;-73
2021/05/03 00:09:57;;;;;;;1.63;1.02;;;8.70;69.80;;;;;;4954808;28;20059;-73
2021/05/03 00:12:23;;;;;;;3.35;0.90;;;8.70;69.90;;;;;;4931992;28;625527;-72
2021/05/03 00:14:50;;;;;;;3.03;1.20;;;8.60;70.00;;;;;;4956254;28;20039;-73
2021/05/03 00:17:17;;;;;;;1.98;1.13;;;8.60;70.00;;;;;;4953970;29;20035;-74
2021/05/03 00:19:43;;;;;;;4.25;1.13;;;8.60;70.10;;;;;;4955847;28;20495;-73
2021/05/03 00:22:09;;;;;;;4.13;1.33;;;8.60;70.00;;;;;;4955879;28;20462;-73
2021/05/03 00:24:34;;;;;;;1.23;1.10;;;8.60;70.10;;;;;;4955623;28;20031;-73
2021/05/03 00:27:00;;;;;;;5.60;1.65;;;8.60;70.20;;;;;;4955897;28;20464;-73
2021/05/03 00:29:26;;;;;;;2.17;1.35;;;8.60;70.20;;;;;;4954000;29;20568;-73
2021/05/03 00:31:51;;;;;;;2.13;1.25;;;8.60;70.40;;;;;;4955741;28;20361;-73
2021/05/03 00:34:17;;;;;;;4.97;1.45;;;8.60;70.40;;;;;;4954934;28;20027;-73
2021/05/03 00:36:43;;;;;;;2.30;1.25;;;8.60;70.50;;;;;;4956117;28;20033;-73
2021/05/03 00:39:08;;;;;;;3.33;1.75;;;8.50;70.50;;;;;;4954240;28;20121;-73
2021/05/03 00:41:34;;;;;;;2.40;1.40;;;8.50;70.60;;;;;;4953722;29;20028;-73
2021/05/03 00:44:00;;;;;;;1.98;1.00;;;8.50;70.70;;;;;;4955355;28;20574;-73
2021/05/03 00:46:26;;;;;;;2.65;1.30;;;8.50;70.80;;;;;;4955032;28;20055;-73
2021/05/03 00:48:52;;;;;;;2.78;1.40;;;8.50;70.90;;;;;;4954228;29;20087;-73
2021/05/03 00:51:18;;;;;;;3.42;1.50;;;8.50;71.00;;;;;;4954789;28;20054;-74
2021/05/03 00:53:43;;;;;;;2.08;1.13;;;8.50;71.10;;;;;;4950383;28;20024;-73
2021/05/03 00:56:09;;;;;;;2.47;1.35;;;8.50;71.10;;;;;;4966330;28;20499;-74
2021/05/03 00:58:37;;;;;;;1.63;1.27;;;8.40;71.20;;;;;;4935256;29;20040;-73
2021/05/03 01:01:04;;;;;;;1.80;1.00;;;8.40;71.20;;;;;;4936166;29;20024;-73
2021/05/03 01:03:30;;;;;;;6.57;1.77;;;8.40;71.30;;;;;;4935727;29;20024;-72
2021/05/03 01:05:56;;;;;;;2.97;1.10;;;8.40;71.50;;;;;;4935689;29;20019;-73
2021/05/03 01:08:21;;;;;;;4.32;1.50;;;8.30;71.50;;;;;;4933923;29;20035;-73
2021/05/03 01:10:47;;;;;;;4.22;1.45;;;8.30;71.50;;;;;;4966833;28;20024;-72
2021/05/03 01:13:13;;;;;;;1.98;1.17;;;8.30;71.70;;;;;;4935850;29;20182;-74
2021/05/03 01:15:39;;;;;;;2.63;1.48;;;8.30;71.80;;;;;;4965390;28;20046;-73
2021/05/03 01:18:05;;;;;;;2.17;1.23;;;8.30;71.90;;;;;;4935654;29;20354;-72
2021/05/03 01:20:33;;;;;;;2.85;1.30;;;8.30;72.00;;;;;;4965679;28;20049;-73
2021/05/03 01:23:00;;;;;;;2.78;1.33;;;8.30;72.00;;;;;;4966516;28;20042;-73
2021/05/03 01:25:31;;;;;;;2.63;1.27;;;8.30;72.00;;;;;;4934792;29;20063;-73
2021/05/03 01:28:03;;;;;;;2.72;1.40;;;8.30;72.00;;;;;;4935487;29;20102;-73
2021/05/03 01:30:38;;;;;;;3.90;1.80;;;8.30;72.10;;;;;;4934821;29;20038;-73
2021/05/03 01:33:06;;;;;;;3.17;1.40;;;8.30;72.20;;;;;;4966239;28;20023;-73
2021/05/03 01:35:33;;;;;;;2.35;1.25;;;8.30;72.10;;;;;;4934492;29;20035;-73
2021/05/03 01:38:00;;;;;;;3.90;1.55;;;8.30;72.10;;;;;;4966203;28;20040;-73
2021/05/03 01:40:28;;;;;;;3.75;1.65;;;8.20;72.10;;;;;;4934550;29;20461;-73
2021/05/03 01:42:55;;;;;;;2.70;1.45;;;8.20;72.20;;;;;;4966314;28;20058;-75
2021/05/03 01:45:27;;;;;;;2.35;1.35;;;8.20;72.30;;;;;;4934685;29;20027;-73
2021/05/03 01:47:54;;;;;;;3.75;1.67;;;8.20;72.40;;;;;;4934993;29;20476;-73
2021/05/03 01:50:21;;;;;;;3.28;1.67;;;8.20;72.60;;;;;;4934357;29;20024;-73
2021/05/03 01:52:48;;;;;;;2.35;1.40;;;8.10;72.60;;;;;;4935623;29;20058;-74
2021/05/03 01:55:14;;;;;;;2.97;1.73;;;8.10;72.70;;;;;;4935144;29;20035;-73
2021/05/03 01:57:40;;;;;;;3.88;1.88;;;8.10;72.80;;;;;;4934415;29;20118;-73
2021/05/03 02:00:08;;;;;;;2.70;1.50;;;8.10;72.90;;;;;;4934918;29;20031;-73
2021/05/03 02:02:34;;;;;;;3.80;1.58;;;8.10;72.90;;;;;;4933363;29;20536;-75
2021/05/03 02:04:59;;;;;;;4.18;1.40;;;8.10;73.00;;;;;;4935036;29;20110;-73
2021/05/03 02:07:25;;;;;;;5.18;1.75;;;8.10;73.00;;;;;;4949107;29;20118;-74
2021/05/03 02:09:51;;;;;;;4.55;1.85;;;8.10;73.10;;;;;;4965818;28;20024;-74
2021/05/03 02:12:16;;;;;;;3.40;1.80;;;8.00;73.00;;;;;;4934772;29;20484;-74
2021/05/03 02:14:43;;;;;;;5.85;2.13;;;8.00;73.10;;;;;;4934625;29;20047;-74
2021/05/03 02:17:09;;;;;;;4.47;1.85;;;8.00;73.40;;;;;;4933622;29;20039;-73
2021/05/03 02:19:35;;;;;;;4.85;2.30;;;8.00;73.40;;;;;;4965234;28;20083;-73
2021/05/03 02:22:00;;;;;;;5.32;2.38;;;8.00;73.60;;;;;;4933697;29;20032;-74
2021/05/03 02:24:26;;;;;;;4.35;1.73;;;8.00;73.60;;;;;;4933188;29;20365;-73
2021/05/03 02:26:52;;;;;;;3.33;1.85;;;8.00;73.60;;;;;;4933561;29;20076;-73
2021/05/03 02:29:18;;;;;;;3.72;2.28;;;7.90;73.60;;;;;;4949386;28;20027;-73
2021/05/03 02:31:43;;;;;;;3.42;1.75;;;7.90;73.60;;;;;;4934155;29;20024;-72
2021/05/03 02:34:09;;;;;;;4.93;1.90;;;7.90;73.60;;;;;;4934564;29;20039;-74
2021/05/03 02:36:35;;;;;;;3.88;1.77;;;7.90;73.70;;;;;;4932803;29;20090;-73
2021/05/03 02:39:00;;;;;;;4.07;2.08;;;7.90;73.70;;;;;;4934272;29;20385;-73
2021/05/03 02:41:26;;;;;;;4.15;2.03;;;7.90;73.70;;;;;;4933755;29;20124;-73
2021/05/03 02:43:51;;;;;;;3.25;1.75;;;7.90;73.80;;;;;;4933720;29;20023;-73
2021/05/03 02:46:17;;;;;;;5.38;2.33;;;7.90;73.80;;;;;;4934666;29;20061;-72
2021/05/03 02:48:43;;;;;;;4.47;1.98;;;7.90;73.80;;;;;;4932457;29;20059;-73
2021/05/03 02:51:08;;;;;;;4.25;1.95;;;7.90;73.80;;;;;;4934565;29;20028;-73
2021/05/03 02:53:34;;;;;;;6.45;2.17;;;7.90;73.90;;;;;;4932665;29;20024;-73
2021/05/03 02:56:00;;;;;;;5.05;1.92;;;7.90;74.00;;;;;;4932961;29;20392;-72
2021/05/03 02:58:25;;;;;;;3.95;2.03;;;7.80;74.00;;;;;;4933622;29;20028;-73
2021/05/03 03:00:51;;;;;;;3.42;1.80;;;7.80;74.00;;;;;;4965003;28;20024;-73
2021/05/03 03:03:17;;;;;;;3.80;2.13;;;7.90;74.10;;;;;;4934461;29;20083;-74
2021/05/03 03:05:42;;;;;;;4.55;2.05;;;7.80;74.10;;;;;;4933898;29;20027;-73
2021/05/03 03:08:08;;;;;;;4.15;2.03;;;7.80;74.20;;;;;;4934295;29;20082;-73
2021/05/03 03:10:34;;;;;;;6.18;2.17;;;7.80;74.20;;;;;;4933782;29;20457;-73
2021/05/03 03:13:02;;;;;;;4.88;2.30;;;7.80;74.20;;;;;;4934224;29;20056;-73
2021/05/03 03:15:31;;;;;;;3.35;1.58;;;7.80;74.30;;;;;;4933667;29;20024;-73
2021/05/03 03:17:57;;;;;;;3.38;1.80;;;7.70;74.30;;;;;;4933968;29;20051;-73
2021/05/03 03:20:23;;;;;;;5.95;2.78;;;7.80;74.40;;;;;;4965022;28;20464;-73
2021/05/03 03:22:49;;;;;;;3.72;1.88;;;7.70;74.50;;;;;;4932528;29;20028;-73
2021/05/03 03:25:16;;;;;;;3.92;2.13;;;7.70;74.50;;;;;;4934324;29;20540;-73
2021/05/03 03:27:42;;;;;;;7.07;2.75;;;7.70;74.70;;;;;;4933681;29;20079;-72
2021/05/03 03:30:10;;;;;;;4.28;1.80;;;7.60;74.70;;;;;;4933887;29;20456;-74
2021/05/03 03:32:41;;;;;;;6.68;2.47;;;7.70;74.80;;;;;;4933511;29;20020;-73
2021/05/03 03:35:07;;;;;;;4.82;2.45;;;7.60;74.80;;;;;;4934162;29;20083;-73
2021/05/03 03:37:33;;;;;;;5.55;2.50;;;7.60;74.80;;;;;;4933233;29;20103;-73
2021/05/03 03:39:59;;;;;;;6.57;2.35;;;7.60;74.90;;;;;;4936817;29;20481;-73
2021/05/03 03:42:24;;;;;;;4.70;2.35;;;7.60;74.90;;;;;;4937495;29;20035;-73
2021/05/03 03:44:50;;;;;;;5.78;2.55;;;7.60;74.90;;;;;;4951691;29;20044;-73
2021/05/03 03:47:16;;;;;;;5.47;2.20;;;7.60;74.90;;;;;;4937594;29;20074;-73
2021/05/03 03:49:42;;;;;;;5.43;2.10;;;7.60;75.00;;;;;;4935535;29;20094;-74
2021/05/03 03:52:07;;;;;;;4.95;2.50;;;7.60;74.90;;;;;;4937052;29;20023;-74
2021/05/03 03:54:33;;;;;;;3.70;2.20;;;7.60;74.90;;;;;;4935514;29;20540;-74
2021/05/03 03:56:59;;;;;;;5.47;2.35;;;7.60;74.90;;;;;;4937201;29;20429;-74
2021/05/03 03:59:24;;;;;;;3.50;2.10;;;7.60;74.90;;;;;;4937595;29;20027;-73
2021/05/03 04:01:50;;;;;;;6.45;2.25;;;7.70;75.00;;;;;;4936544;29;20115;-73
2021/05/03 04:04:21;;;;;;;5.10;2.40;;;7.70;74.90;;;;;;4935763;29;20392;-73
2021/05/03 04:25:37;;;;;;;5.95;2.42;;;7.70;75.00;;;;;;4936876;29;20458;-73
2021/05/03 04:28:04;;;;;;;5.25;2.25;;;7.70;75.00;;;;;;4967621;28;20035;-73
2021/05/03 04:30:29;;;;;;;4.70;2.28;;;7.70;75.10;;;;;;4935706;29;20444;-74
2021/05/03 04:32:55;;;;;;;5.03;2.58;;;7.70;75.10;;;;;;4936643;29;20019;-74
2021/05/03 04:35:21;;;;;;;5.50;2.70;;;7.70;75.10;;;;;;4936567;29;20460;-73
2021/05/03 04:37:47;;;;;;;5.45;3.13;;;7.70;75.10;;;;;;4934552;29;20027;-74
2021/05/03 04:40:13;;;;;;;6.07;3.35;;;7.70;75.30;;;;;;4936273;29;20396;-73
2021/05/03 04:42:39;;;;;;;5.40;2.67;;;7.70;75.20;;;;;;4936376;29;20485;-73
2021/05/03 04:45:05;;;;;;;7.50;3.20;;;7.80;75.10;;;;;;4936354;29;20027;-73
2021/05/03 04:47:31;;;;;;;6.97;3.17;;;7.80;75.10;;;;;;4934518;29;20027;-74
2021/05/03 04:49:58;;;;;;;6.05;3.15;;;7.80;75.00;;;;;;4934211;29;20388;-73
2021/05/03 04:52:24;;;;;;;5.07;2.30;;;7.80;74.80;;;;;;4936328;29;20027;-74
2021/05/03 04:54:50;;;;;;;4.90;2.63;;;7.90;74.90;;;;;;4935493;29;20494;-73
2021/05/03 04:57:15;;;;;;;5.43;2.85;;;7.90;74.90;;;;;;4936259;29;20055;-73
2021/05/03 04:59:41;;;;;;;7.07;3.33;;;7.90;74.90;;;;;;4935872;29;20027;-73
2021/05/03 05:02:07;;;;;;;5.78;2.80;;;7.90;74.80;;;;;;4935838;29;20024;-73
2021/05/03 05:04:32;;;;;;;8.50;3.08;;;7.90;74.80;;;;;;4966117;28;20028;-74
2021/05/03 05:07:00;;;;;;;6.57;3.50;;;7.90;74.80;;;;;;4966576;28;20028;-73
2021/05/03 05:09:25;;;;;;;5.25;2.90;;;8.00;74.60;;;;;;4935800;29;20027;-73
2021/05/03 05:11:51;;;;;;;4.72;2.63;;;8.00;74.50;;;;;;4935475;29;20131;-73
2021/05/03 05:14:17;;;;;;;6.18;2.95;;;8.00;74.40;;;;;;4935250;29;20051;-73
2021/05/03 05:16:44;;;;;;;4.60;2.38;;;8.10;74.30;;;;;;4947562;29;20114;-73
2021/05/03 05:19:10;;;;;;;8.07;3.42;;;8.10;74.30;;;;;;4953444;29;20038;-73
2021/05/03 05:21:36;;;;;;;5.32;2.92;;;8.20;74.30;;;;;;4954102;28;20031;-73
2021/05/03 05:24:02;;;;;;;5.57;3.38;;;8.20;74.00;;;;;;4954491;28;20449;-73
2021/05/03 05:26:28;;;;;;;11.27;2.90;;;8.20;73.80;;;;;;4954407;28;20102;-73
2021/05/03 05:28:54;;;;;;;5.93;3.03;;;8.20;73.40;;;;;;4953980;28;20110;-73
2021/05/03 05:31:20;;;;;;;4.88;2.63;;;8.20;73.40;;;;;;4953277;28;20110;-74
2021/05/03 05:33:45;;;;;;;8.60;3.20;;;8.20;73.20;;;;;;4953895;28;20038;-72
2021/05/03 05:36:11;;;;;;;5.10;2.75;;;8.20;73.40;;;;;;4954657;28;20098;-73
2021/05/03 05:38:38;;;;;;;4.63;2.83;;;8.20;73.40;;;;;;4953704;28;20035;-74
2021/05/03 05:41:04;;;;;;;7.55;2.75;;;8.20;73.00;;;;;;4953354;28;20444;-73
2021/05/03 05:43:30;;;;;;;6.50;2.75;;;8.20;73.00;;;;;;4942926;29;20034;-73
2021/05/03 05:45:56;;;;;;;7.05;3.28;;;8.20;73.00;;;;;;4950032;29;20020;-74
2021/05/03 05:48:22;;;;;;;5.30;2.88;;;8.20;72.70;;;;;;4950978;28;20031;-74
2021/05/03 05:50:48;;;;;;;5.00;2.70;;;8.20;72.60;;;;;;4933299;29;20491;-75
2021/05/03 05:53:14;;;;;;;5.57;2.90;;;8.20;72.60;;;;;;4937056;29;20110;-74
2021/05/03 05:55:40;;;;;;;5.50;2.63;;;8.30;72.50;;;;;;4935841;29;20226;-74
2021/05/03 05:58:06;;;;;;;12.77;3.05;;;8.20;72.30;;;;;;4944538;28;20028;-73
2021/05/03 06:00:32;;;;;;;6.20;2.97;;;8.30;72.10;;;;;;4935123;29;20028;-74
2021/05/03 06:02:58;;;;;;;6.47;2.78;;;8.20;71.90;;;;;;4947459;29;20049;-74
2021/05/03 06:05:24;;;;;;;4.03;2.38;;;8.20;71.90;;;;;;4953659;29;20460;-74
2021/05/03 06:07:50;;;;;;;5.47;2.67;;;8.20;71.80;;;;;;4952160;29;20031;-78
2021/05/03 06:10:16;;;;;;;8.00;2.63;;;8.20;71.70;;;;;;4950180;29;20019;-76
2021/05/03 06:12:42;;;;;;;4.97;2.40;;;8.10;71.50;;;;;;4951113;28;20383;-76
2021/05/03 06:15:08;;;;;;;5.80;3.08;;;8.10;72.20;;;;;;4950794;29;20030;-77
2021/05/03 06:17:33;;;;;;;6.22;2.78;;;8.20;71.70;;;;;;4952046;28;20039;-77
2021/05/03 06:19:59;;;;;;;3.10;1.95;;;8.20;71.70;;;;;;4951507;29;20059;-78
2021/05/03 06:22:25;;;;;;;6.03;2.40;;;8.30;71.70;;;;;;4939124;29;20436;-77
2021/05/03 06:24:51;;;;;;;6.57;2.60;;;8.30;71.50;;;;;;4935043;29;20352;-77
2021/05/03 06:27:16;;;;;;;5.10;2.72;;;8.40;71.50;;;;;;4970073;28;20118;-77
2021/05/03 06:29:42;;;;;;;8.40;2.95;;;8.40;71.30;;;;;;4940725;28;20522;-78
2021/05/03 06:32:07;;;;;;;3.58;2.05;;;8.50;71.20;;;;;;4940958;29;20439;-75
2021/05/03 06:34:33;;;;;;;5.90;3.10;;;8.50;70.90;;;;;;4947530;29;20027;-77
2021/05/03 06:36:59;;;;;;;4.30;2.40;;;8.50;70.60;;;;;;4946516;29;20371;-76
2021/05/03 06:39:25;;;;;;;5.35;2.58;;;8.50;70.60;;;;;;4938384;28;20122;-77
2021/05/03 06:41:51;;;;;;;5.13;2.65;;;8.50;70.30;;;;;;4931758;29;20535;-76
2021/05/03 06:44:17;;;;;;;5.45;2.67;;;8.60;70.00;;;;;;4932297;29;20028;-77
2021/05/03 06:46:43;;;;;;;6.72;2.83;;;8.60;70.00;;;;;;4940424;29;20028;-75
2021/05/03 06:49:09;;;;;;;6.00;2.97;;;8.60;69.90;;;;;;4957247;28;20031;-73
2021/05/03 06:51:35;;;;;;;4.90;2.15;;;8.70;69.60;;;;;;4939383;29;20039;-74
2021/05/03 06:54:02;;;;;;;4.47;2.22;;;8.70;69.40;;;;;;4934733;29;20031;-75
2021/05/03 06:56:28;;;;;;;4.78;2.05;;;8.70;69.10;;;;;;4935152;29;20556;-74
2021/05/03 06:58:53;;;;;;;6.43;2.63;;;8.80;68.80;;;;;;4944076;29;20032;-75
2021/05/03 07:01:19;;;;;;;4.13;2.00;;;8.80;68.30;;;;;;4949576;28;20031;-75
2021/05/03 07:03:44;;;;;;;3.13;1.73;;;8.90;68.20;;;;;;4941349;29;20031;-72
2021/05/03 07:06:10;;;;;;;5.82;2.85;;;8.90;68.00;;;;;;4953173;28;20024;-74
2021/05/03 07:08:37;;;;;;;3.40;1.90;;;9.00;67.90;;;;;;4953517;28;20062;-75
2021/05/03 07:11:12;;;;;;;2.47;1.48;;;9.00;67.90;;;;;;4950940;28;20464;-75
2021/05/03 07:13:38;;;;;;;7.90;2.58;;;9.00;67.40;;;;;;4948448;28;20476;-73
2021/05/03 07:16:04;;;;;;;6.18;2.67;;;9.10;67.30;;;;;;4953001;28;20042;-75
2021/05/03 07:18:29;;;;;;;4.50;2.22;;;9.10;67.10;;;;;;4956517;28;20070;-75
2021/05/03 07:20:55;;;;;;;5.70;2.20;;;9.10;66.50;;;;;;4984667;28;20395;-74
2021/05/03 07:23:21;;;;;;;4.88;2.08;;;9.20;66.60;;;;;;4938522;29;20440;-74
2021/05/03 07:25:46;;;;;;;5.30;2.20;;;9.20;66.60;;;;;;4939091;29;20031;-74
2021/05/03 07:28:12;;;;;;;5.32;2.42;;;9.20;66.70;;;;;;4948487;29;20024;-74
2021/05/03 07:30:38;;;;;;;3.20;2.10;;;9.30;66.80;;;;;;4956987;29;20433;-74
2021/05/03 07:33:04;;;;;;;3.88;2.17;;;9.30;66.30;;;;;;4955731;28;20035;-74
2021/05/03 07:35:29;;;;;;;5.97;2.30;;;9.40;66.10;;;;;;4942401;28;20035;-74
2021/05/03 07:37:55;;;;;;;3.67;1.90;;;9.40;66.00;;;;;;4955919;29;20483;-74
2021/05/03 07:40:21;;;;;;;5.75;2.50;;;9.40;65.90;;;;;;4944846;28;20036;-74
2021/05/03 07:42:46;;;;;;;4.85;2.20;;;9.40;66.00;;;;;;4953517;29;20507;-74
2021/05/03 07:45:16;;;;;;;6.07;2.25;;;9.40;65.80;;;;;;4955198;29;20016;-75
2021/05/03 07:47:43;;;;;;;5.05;2.15;;;9.50;65.70;;;;;;4955105;29;20538;-74
2021/05/03 07:50:10;;;;;;;8.57;3.08;;;9.50;66.60;;;;;;4944426;28;20111;-75
2021/05/03 07:52:35;;;;;;;7.20;2.85;;;9.50;66.00;;;;;;4953354;29;20507;-75
2021/05/03 07:55:02;;;;;;;5.55;2.60;;;9.60;66.00;;;;;;4949481;29;20107;-75
2021/05/03 07:57:28;;;;;;;8.35;3.45;;;9.70;65.90;;;;;;4945548;28;20415;-74
2021/05/03 07:59:54;;;;;;;6.28;3.03;;;9.70;65.90;;;;;;4949065;29;20019;-74
2021/05/03 08:02:20;;;;;;;5.32;2.65;;;9.80;66.00;;;;;;4954028;29;20036;-74
2021/05/03 08:04:46;;;;;;;5.63;2.58;;;9.90;66.10;;;;;;4953522;28;20023;-74
2021/05/03 08:07:11;;;;;;;8.52;3.55;;;10.00;66.10;;;;;;4953820;29;20547;-74
2021/05/03 08:09:37;;;;;;;8.52;3.58;;;10.10;66.00;;;;;;4954920;28;20121;-75
2021/05/03 08:12:04;;;;;;;8.43;3.88;;;10.10;66.00;;;;;;4953547;29;20106;-74
2021/05/03 08:14:32;;;;;;;8.32;3.53;;;10.20;65.80;;;;;;4954878;28;20047;-75
2021/05/03 08:17:05;;;;;;;8.85;4.03;;;10.30;65.80;;;;;;4952600;28;20039;-75
2021/05/03 08:19:32;;;;;;;9.00;4.57;;;10.30;65.60;;;;;;4954457;29;20581;-75
2021/05/03 08:22:00;;;;;;;8.35;3.53;;;10.30;65.70;;;;;;4950085;28;20023;-75
2021/05/03 08:24:26;;;;;;;9.15;4.30;;;10.40;65.90;;;;;;4951467;28;20100;-75
2021/05/03 08:26:53;;;;;;;8.80;4.15;;;10.50;65.80;;;;;;4942891;29;20015;-75
2021/05/03 08:29:19;;;;;;;13.85;4.38;;;10.50;65.60;;;;;;4954173;28;20427;-75
2021/05/03 08:31:45;;;;;;;10.05;4.18;;;10.60;65.60;;;;;;4955076;29;20512;-75
2021/05/03 08:34:11;;;;;;;8.60;4.35;;;10.70;65.60;;;;;;4953747;29;20031;-75
2021/05/03 08:36:37;;;;;;;8.73;4.93;;;10.70;66.10;;;;;;4954323;28;20027;-75
2021/05/03 08:39:04;;;;;;;10.52;4.80;;;10.80;65.10;;;;;;4954117;29;20035;-77
2021/05/03 08:41:30;;;;;;;11.70;4.82;;;10.80;65.10;;;;;;4955073;28;20484;-76
2021/05/03 08:43:56;;;;;;;9.88;4.63;;;10.90;65.20;;;;;;4953403;29;20028;-75
2021/05/03 08:46:28;;;;;;;10.10;4.97;;;11.00;64.90;;;;;;4953490;29;20031;-74
2021/05/03 08:49:01;;;;;;;7.47;4.05;;;11.00;64.80;;;;;;4966355;28;20054;-74
2021/05/03 08:54:41;;;;;;;7.13;3.92;;;11.10;64.60;;;;;;4943676;28;20483;-75
2021/05/03 08:57:09;;;;;;;9.32;4.22;;;11.20;64.60;;;;;;4954518;28;20102;-75
2021/05/03 08:59:36;;;;;;;6.25;3.50;;;11.20;64.70;;;;;;4953736;28;20043;-75
2021/05/03 09:02:03;;;;;;;11.13;4.90;;;11.20;64.80;;;;;;4952847;29;20065;-75
2021/05/03 09:04:30;;;;;;;6.85;3.65;;;11.30;64.30;;;;;;4955036;28;20045;-75
2021/05/03 09:07:19;;;;;;;10.23;4.20;;;11.40;64.30;;;;;;4954367;28;20023;-75
2021/05/03 09:09:46;;;;;;;9.15;4.47;;;11.50;64.50;;;;;;4943722;28;20071;-75
2021/05/03 09:12:16;;;;;;;7.82;4.10;;;11.50;64.20;;;;;;4953230;29;20110;-75
2021/05/03 09:14:59;;;;;;;10.05;4.53;;;11.50;64.00;;;;;;4951055;28;20090;-75
2021/05/03 09:17:29;;;;;;;9.27;4.03;;;11.60;63.90;;;;;;4953464;29;20460;-74
2021/05/03 09:20:12;;;;;;;11.57;5.63;;;11.70;63.80;;;;;;4947512;29;20027;-76
2021/05/03 09:23:14;;;;;;;10.65;4.63;;;11.70;63.90;;;;;;4951576;29;20275;-76
2021/05/03 09:25:37;;;;;;;11.13;4.05;;;11.80;63.70;;;;;;4951608;28;20387;-75
2021/05/03 09:28:07;;;;;;;8.35;3.70;;;11.80;63.20;;;;;;4935096;29;20475;-75
2021/05/03 09:30:47;;;;;;;10.65;3.65;;;11.90;63.10;;;;;;4935593;29;20054;-74
2021/05/03 09:33:28;;;;;;;8.47;3.70;;;11.90;63.00;;;;;;4935840;29;20028;-75
2021/05/03 09:35:58;;;;;;;6.55;3.55;;;12.10;63.20;;;;;;4937136;29;20063;-76
2021/05/03 09:38:34;;;;;;;11.15;5.65;;;12.10;63.00;;;;;;4949927;29;20055;-75
2021/05/03 09:41:12;;;;;;;11.38;4.72;;;12.20;62.90;;;;;;4949314;28;20027;-81
2021/05/03 09:43:39;;;;;;;9.52;4.28;;;12.30;62.70;;;;;;4980363;28;20027;-74
2021/05/03 09:46:28;;;;;;;7.57;3.95;;;12.30;62.40;;;;;;4946748;29;20059;-90
2021/05/03 09:48:55;;;;;;;8.77;4.20;;;12.40;62.10;;;;;;4939557;29;20031;-81
2021/05/03 09:51:38;;;;;;;6.80;3.25;;;12.40;61.80;;;;;;4942375;28;20061;-76
2021/05/03 09:54:03;;;;;;;6.78;2.92;;;12.60;61.50;;;;;;4947733;29;20073;-81
2021/05/03 09:57:02;;;;;;;9.27;3.92;;;12.60;61.10;;;;;;4940273;29;20031;-75
2021/05/03 09:59:32;;;;;;;9.48;3.88;;;12.70;61.00;;;;;;4944116;28;20035;-74
2021/05/03 10:02:04;;;;;;;8.00;4.20;;;12.80;60.70;;;;;;4953350;28;20027;-74
2021/05/03 10:04:31;;;;;;;9.00;3.80;;;13.00;60.40;;;;;;4954183;28;20115;-76
2021/05/03 10:06:57;;;;;;;6.72;3.28;;;13.00;60.00;;;;;;4952186;29;20027;-76
2021/05/03 10:09:24;;;;;;;9.27;4.75;;;13.10;59.40;;;;;;4953849;28;20082;-76
2021/05/03 10:11:50;;;;;;;8.35;3.88;;;13.20;59.40;;;;;;4952394;28;20035;-77
2021/05/03 10:14:15;;;;;;;8.10;3.78;;;13.20;59.40;;;;;;4951640;28;20054;-76
2021/05/03 10:16:42;;;;;;;7.20;2.90;;;13.20;59.20;;;;;;4952583;29;20379;-77
2021/05/03 10:19:08;;;;;;;9.25;4.38;;;13.30;58.90;;;;;;4951592;28;20355;-77
2021/05/03 10:21:34;;;;;;;8.50;3.92;;;13.40;58.70;;;;;;4953857;28;20106;-77
2021/05/03 10:24:01;;;;;;;8.82;4.55;;;13.40;58.60;;;;;;4953119;28;20027;-76
2021/05/03 10:26:27;;;;;;;7.10;3.95;;;13.50;58.50;;;;;;4953448;28;20425;-76
2021/05/03 10:28:55;;;;;;;7.57;3.35;;;13.60;57.50;;;;;;4953689;28;20033;-76
2021/05/03 10:31:23;;;;;;;7.65;3.97;;;13.70;57.20;;;;;;4951681;29;20408;-76
2021/05/03 10:33:49;;;;;;;5.50;3.28;;;13.70;57.00;;;;;;4952843;29;20034;-75
2021/05/03 10:36:33;;;;;;;6.63;3.10;;;13.80;56.70;;;;;;4953333;28;20460;-76
2021/05/03 10:38:59;;;;;;;7.18;3.72;;;13.80;56.10;;;;;;4953256;28;20503;-76
2021/05/03 10:41:33;;;;;;;7.82;3.65;;;13.80;55.80;;;;;;4952802;28;20023;-77
2021/05/03 10:44:22;;;;;;;9.05;3.47;;;13.80;56.20;;;;;;4953223;28;20028;-77
2021/05/03 10:47:05;;;;;;;7.18;4.03;;;13.80;55.90;;;;;;4953751;28;20070;-77
2021/05/03 10:49:34;;;;;;;7.57;3.60;;;13.90;55.50;;;;;;4955147;29;20034;-77
2021/05/03 10:52:08;;;;;;;6.72;3.10;;;14.00;55.30;;;;;;4955619;29;20047;-76
2021/05/03 10:57:16;;;;;;;7.82;3.08;;;14.10;54.90;;;;;;4957169;28;20480;-76
2021/05/03 10:59:46;;;;;;;9.20;3.83;;;14.20;54.80;;;;;;4955969;28;20035;-76
2021/05/03 11:02:14;;;;;;;8.82;3.33;;;14.20;54.60;;;;;;4956995;28;20110;-77
2021/05/03 11:05:08;;;;;;;7.75;3.75;;;14.30;54.70;;;;;;4957724;28;20436;-77
2021/05/03 11:07:34;;;;;;;8.23;3.70;;;14.30;54.60;;;;;;4957502;28;20031;-77
2021/05/03 11:10:00;;;;;;;3.97;2.42;;;14.40;53.90;;;;;;4956938;28;20031;-78
2021/05/03 11:12:28;;;;;;;7.78;3.53;;;14.40;53.20;;;;;;4956422;28;20031;-77
2021/05/03 11:15:19;;;;;;;7.53;4.15;;;14.40;52.50;;;;;;4955729;28;20062;-78
2021/05/03 11:18:24;;;;;;;6.30;3.05;;;14.40;52.30;;;;;;4957332;28;20036;-77
2021/05/03 11:20:57;;;;;;;7.60;3.80;;;14.40;52.20;;;;;;4956304;28;20515;-78
2021/05/03 11:23:31;;;;;;;5.93;3.15;;;14.50;52.00;;;;;;4956791;28;20023;-76
2021/05/03 11:25:57;;;;;;;6.47;2.90;;;14.50;51.80;;;;;;4956270;29;20023;-80
2021/05/03 11:28:27;;;;;;;7.35;3.40;;;14.50;51.40;;;;;;4956751;28;20480;-76
2021/05/03 11:31:00;;;;;;;5.93;2.83;;;14.60;51.30;;;;;;4956390;29;20050;-77
2021/05/03 11:33:41;;;;;;;7.38;2.88;;;14.70;50.80;;;;;;4956816;28;20510;-76
2021/05/03 11:36:11;;;;;;;5.60;2.50;;;14.90;50.30;;;;;;4956416;28;20023;-77
2021/05/03 11:46:33;;;;;;;8.63;3.92;;;14.90;49.00;;;;;;4957086;28;20042;-76
2021/05/03 11:49:13;;;;;;;4.53;2.33;;;14.90;48.90;;;;;;4955955;29;20031;-77
2021/05/03 11:51:58;;;;;;;6.50;2.92;;;15.00;48.30;;;;;;4955889;29;20030;-76
2021/05/03 11:54:37;;;;;;;6.68;3.15;;;15.10;48.00;;;;;;4956335;28;20031;-76
2021/05/03 11:57:07;;;;;;;8.15;3.08;;;15.10;48.20;;;;;;4955505;28;20046;-77
2021/05/03 11:59:33;;;;;;;6.28;3.10;;;15.10;48.50;;;;;;4956058;28;20147;-77
2021/05/03 12:02:03;;;;;;;6.05;2.97;;;15.20;48.60;;;;;;4956679;28;20027;-77
2021/05/03 12:04:39;;;;;;;5.75;3.20;;;15.30;47.80;;;;;;4955352;28;20118;-77
2021/05/03 12:07:22;;;;;;;5.43;2.90;;;15.40;47.60;;;;;;4954540;28;20493;-77
2021/05/03 12:10:11;;;;;;;6.07;3.42;;;15.40;47.40;;;;;;4955571;29;20126;-76
2021/05/03 12:12:39;;;;;;;4.43;2.15;;;15.50;47.30;;;;;;4956413;28;20026;-77
2021/05/03 12:15:08;;;;;;;6.03;2.78;;;15.50;46.90;;;;;;4954359;28;20047;-77
2021/05/03 12:17:35;;;;;;;4.68;2.50;;;15.50;47.10;;;;;;4956008;28;20024;-77
2021/05/03 12:20:08;;;;;;;5.38;2.40;;;15.50;46.60;;;;;;4954858;28;20034;-76
2021/05/03 12:22:36;;;;;;;7.07;3.15;;;15.40;46.50;;;;;;4954971;28;20037;-76
2021/05/03 12:25:09;;;;;;;9.13;3.72;;;15.30;46.40;;;;;;4955261;29;20379;-77
2021/05/03 12:27:36;;;;;;;6.93;3.50;;;15.40;46.30;;;;;;4956028;28;20027;-77
2021/05/03 12:30:06;;;;;;;5.65;3.20;;;15.30;45.90;;;;;;4956094;28;20058;-77
2021/05/03 12:32:40;;;;;;;4.93;3.05;;;15.40;46.00;;;;;;4954966;29;20023;-76
2021/05/03 12:35:15;;;;;;;7.30;3.30;;;15.50;46.30;;;;;;4955578;29;20038;-76
2021/05/03 12:37:41;;;;;;;6.00;2.85;;;15.50;46.20;;;;;;4956693;28;20043;-76
2021/05/03 12:40:16;;;;;;;6.07;3.10;;;15.50;46.10;;;;;;4956808;28;20372;-77
2021/05/03 12:42:43;;;;;;;7.45;2.35;;;15.60;46.50;;;;;;4959486;28;20106;-76
2021/05/03 12:45:14;;;;;;;7.68;3.53;;;15.50;46.40;;;;;;4955671;28;20028;-77
2021/05/03 12:51:04;;;;;;;5.53;2.78;;;15.40;46.70;;;;;;4955471;28;20042;-77
2021/05/03 12:53:37;;;;;;;4.97;2.22;;;15.40;46.80;;;;;;4956105;28;20023;-76
2021/05/03 12:56:22;;;;;;;5.75;2.90;;;15.50;46.60;;;;;;4956650;28;20114;-77
2021/05/03 12:59:05;;;;;;;6.03;3.25;;;15.50;46.60;;;;;;4954479;29;20486;-77
2021/05/03 13:07:12;;;;;;;7.35;3.60;;;15.60;45.70;;;;;;4955317;28;20028;-75
2021/05/03 13:10:14;;;;;;;6.90;3.90;;;15.70;45.60;;;;;;4955036;28;20464;-76
2021/05/03 13:29:23;;;;;;;4.55;2.65;;;16.00;43.80;;;;;;4954433;29;20431;-77
2021/05/03 13:31:50;;;;;;;6.63;2.83;;;16.10;43.90;;;;;;4953674;29;20031;-75
2021/05/03 13:34:19;;;;;;;5.28;2.92;;;16.00;43.50;;;;;;4954183;28;20038;-76
2021/05/03 13:36:47;;;;;;;5.53;2.85;;;16.10;43.60;;;;;;4954965;28;20465;-77
2021/05/03 13:39:13;;;;;;;4.78;1.92;;;16.10;43.60;;;;;;4954153;28;20042;-77
2021/05/03 13:41:43;;;;;;;5.75;2.72;;;16.20;43.60;;;;;;4953580;28;20049;-77
2021/05/03 13:44:11;;;;;;;5.63;2.97;;;16.30;43.70;;;;;;4954608;28;20034;-77
2021/05/03 13:46:37;;;;;;;9.10;2.45;;;16.30;43.90;;;;;;4954550;28;20024;-77
2021/05/03 13:49:04;;;;;;;3.85;1.90;;;16.40;43.70;;;;;;4953172;28;20098;-76
2021/05/03 13:51:30;;;;;;;3.35;1.75;;;16.40;43.60;;;;;;4953826;28;20097;-77
2021/05/03 13:53:56;;;;;;;3.53;1.88;;;16.40;43.50;;;;;;4954041;28;20424;-77
2021/05/03 13:56:22;;;;;;;4.55;2.15;;;16.40;43.70;;;;;;4952702;28;20115;-77